createdAt,value
2018-07-27T00:00:28.216Z,27.00
2018-07-27T00:02:55.682Z,26.90
2018-07-27T00:05:23.244Z,26.90
2018-07-27T00:07:50.808Z,26.90
2018-07-27T00:10:18.372Z,26.80
2018-07-27T00:12:45.841Z,26.80
2018-07-27T00:15:13.307Z,26.70
2018-07-27T00:17:40.770Z,26.70
2018-07-27T00:20:08.229Z,26.70
2018-07-27T00:22:35.696Z,26.90
2018-07-27T00:25:03.175Z,26.90
2018-07-27T00:27:30.726Z,26.80
2018-07-27T00:29:58.176Z,26.90
2018-07-27T00:32:25.623Z,27.00
2018-07-27T00:34:53.093Z,26.90
2018-07-27T00:37:21.450Z,26.90
2018-07-27T00:39:48.941Z,26.80
2018-07-27T00:42:16.504Z,26.80
2018-07-27T00:44:43.979Z,26.90
2018-07-27T00:47:12.193Z,27.10
2018-07-27T00:49:40.434Z,27.10
2018-07-27T00:52:08.004Z,27.10
2018-07-27T00:54:36.271Z,27.10
2018-07-27T00:57:03.735Z,27.00
2018-07-27T00:59:31.190Z,27.00
2018-07-27T01:01:58.640Z,27.00
2018-07-27T01:04:26.132Z,27.10
2018-07-27T01:06:53.684Z,27.10
2018-07-27T01:09:21.255Z,27.30
2018-07-27T01:11:48.811Z,27.30
2018-07-27T01:14:16.382Z,27.10
2018-07-27T01:16:43.937Z,27.00
2018-07-27T01:19:11.403Z,27.30
2018-07-27T01:21:40.045Z,27.20
2018-07-27T01:24:07.589Z,27.00
2018-07-27T01:26:35.843Z,26.90
2018-07-27T01:29:03.403Z,26.90
2018-07-27T01:31:30.866Z,26.70
2018-07-27T01:33:58.316Z,26.80
2018-07-27T01:36:25.787Z,27.00
2018-07-27T01:38:53.240Z,27.00
2018-07-27T01:41:20.774Z,26.90
2018-07-27T01:43:48.271Z,27.00
2018-07-27T01:46:15.719Z,27.10
2018-07-27T01:48:43.181Z,27.00
2018-07-27T01:51:10.646Z,27.10
2018-07-27T01:53:38.093Z,27.00
2018-07-27T01:56:05.557Z,26.90
2018-07-27T01:58:33.014Z,26.80
2018-07-27T02:01:00.502Z,26.70
2018-07-27T02:03:27.978Z,26.70
2018-07-27T02:05:55.435Z,26.80
2018-07-27T02:08:22.999Z,26.70
2018-07-27T02:10:50.467Z,26.70
2018-07-27T02:13:17.936Z,26.80
2018-07-27T02:15:45.395Z,26.80
2018-07-27T02:18:12.852Z,26.80
2018-07-27T02:20:40.310Z,26.80
2018-07-27T02:23:07.886Z,26.90
2018-07-27T02:25:36.119Z,26.60
2018-07-27T02:28:03.617Z,26.60
2018-07-27T02:30:31.187Z,26.60
2018-07-27T02:32:58.757Z,26.60
2018-07-27T02:35:26.202Z,26.60
2018-07-27T02:37:53.780Z,26.60
2018-07-27T02:40:21.232Z,26.80
2018-07-27T02:42:48.705Z,26.60
2018-07-27T02:45:16.171Z,26.70
2018-07-27T02:47:43.644Z,26.80
2018-07-27T02:50:11.189Z,26.50
2018-07-27T02:52:38.637Z,26.50
2018-07-27T02:55:06.109Z,26.50
2018-07-27T02:57:33.555Z,26.40
2018-07-27T03:00:01.050Z,26.40
2018-07-27T03:02:28.490Z,26.30
2018-07-27T03:04:56.069Z,26.40
2018-07-27T03:07:23.530Z,26.50
2018-07-27T03:09:51.141Z,26.50
2018-07-27T03:12:18.652Z,26.40
2018-07-27T03:14:46.111Z,26.40
2018-07-27T03:17:13.948Z,26.30
2018-07-27T03:19:41.407Z,26.20
2018-07-27T03:22:08.873Z,26.20
2018-07-27T03:24:36.329Z,26.20
2018-07-27T03:27:03.794Z,26.20
2018-07-27T03:29:31.303Z,26.20
2018-07-27T03:31:58.869Z,26.30
2018-07-27T03:34:27.832Z,26.30
2018-07-27T03:36:55.319Z,26.30
2018-07-27T03:39:22.789Z,26.30
2018-07-27T03:41:50.345Z,26.20
2018-07-27T03:44:17.812Z,26.30
2018-07-27T03:46:45.267Z,26.20
2018-07-27T03:49:12.719Z,26.20
2018-07-27T03:51:40.202Z,26.20
2018-07-27T03:54:08.642Z,26.10
2018-07-27T03:56:36.142Z,26.10
2018-07-27T03:59:03.717Z,26.10
2018-07-27T04:01:31.164Z,26.00
2018-07-27T04:03:58.733Z,26.00
2018-07-27T04:06:26.203Z,26.10
2018-07-27T04:08:53.656Z,26.00
2018-07-27T04:11:21.127Z,26.00
2018-07-27T04:13:48.576Z,26.10
2018-07-27T04:16:16.040Z,26.10
2018-07-27T04:18:43.504Z,26.10
2018-07-27T04:21:10.973Z,26.10
2018-07-27T04:23:38.441Z,26.20
2018-07-27T04:26:05.892Z,26.20
2018-07-27T04:28:33.361Z,26.00
2018-07-27T04:31:00.800Z,26.10
2018-07-27T04:33:28.269Z,26.00
2018-07-27T04:35:55.753Z,26.00
2018-07-27T04:38:23.219Z,26.10
2018-07-27T04:40:50.685Z,26.00
2018-07-27T04:43:18.942Z,26.10
2018-07-27T04:45:46.409Z,26.10
2018-07-27T04:48:13.871Z,26.10
2018-07-27T04:50:41.441Z,26.20
2018-07-27T04:53:08.905Z,26.20
2018-07-27T04:55:36.475Z,26.20
2018-07-27T04:58:03.976Z,26.20
2018-07-27T05:00:32.192Z,26.30
2018-07-27T05:02:59.653Z,26.20
2018-07-27T05:05:27.125Z,26.30
2018-07-27T05:07:54.575Z,26.30
2018-07-27T05:10:22.050Z,26.30
2018-07-27T05:12:49.683Z,26.30
2018-07-27T05:15:17.143Z,26.20
2018-07-27T05:17:44.614Z,26.30
2018-07-27T05:20:12.133Z,26.30
2018-07-27T05:22:39.607Z,26.50
2018-07-27T05:25:07.852Z,26.30
2018-07-27T05:27:35.311Z,26.30
2018-07-27T05:30:02.881Z,26.30
2018-07-27T05:32:30.327Z,26.40
2018-07-27T05:34:57.785Z,26.30
2018-07-27T05:37:25.248Z,26.40
2018-07-27T05:39:52.730Z,26.40
2018-07-27T05:42:20.759Z,26.50
2018-07-27T05:44:48.225Z,26.50
2018-07-27T05:47:16.986Z,26.50
2018-07-27T05:49:45.824Z,26.50
2018-07-27T05:52:13.272Z,26.60
2018-07-27T05:54:40.736Z,26.50
2018-07-27T05:57:08.193Z,26.60
2018-07-27T05:59:35.697Z,26.70
2018-07-27T06:02:03.156Z,26.70
2018-07-27T06:04:30.612Z,26.80
2018-07-27T06:06:58.083Z,26.90
2018-07-27T06:09:25.645Z,26.80
2018-07-27T06:11:53.208Z,26.90
2018-07-27T06:14:20.691Z,26.90
2018-07-27T06:16:48.168Z,27.00
2018-07-27T06:19:15.625Z,27.20
2018-07-27T06:21:43.877Z,27.30
2018-07-27T06:24:11.378Z,27.30
2018-07-27T06:26:38.793Z,27.40
2018-07-27T06:29:06.274Z,27.70
2018-07-27T06:31:33.731Z,27.90
2018-07-27T06:34:01.198Z,28.20
2018-07-27T06:36:29.416Z,28.40
2018-07-27T06:38:57.645Z,28.40
2018-07-27T06:41:25.137Z,28.40
2018-07-27T06:43:52.616Z,28.40
2018-07-27T06:46:20.866Z,28.40
2018-07-27T06:48:49.144Z,28.50
2018-07-27T06:51:16.603Z,28.40
2018-07-27T06:53:45.588Z,28.50
2018-07-27T06:56:13.056Z,28.50
2018-07-27T06:58:40.519Z,28.50
2018-07-27T07:01:07.984Z,28.50
2018-07-27T07:03:35.597Z,28.50
2018-07-27T07:06:03.018Z,28.40
2018-07-27T07:08:31.174Z,28.40
2018-07-27T07:10:58.628Z,28.50
2018-07-27T07:13:26.080Z,28.40
2018-07-27T07:15:53.581Z,28.40
2018-07-27T07:18:21.158Z,28.40
2018-07-27T07:20:50.122Z,28.40
2018-07-27T07:23:17.581Z,28.50
2018-07-27T07:25:45.195Z,28.50
2018-07-27T07:28:12.529Z,28.50
2018-07-27T07:30:39.992Z,28.50
2018-07-27T07:33:07.560Z,28.50
2018-07-27T07:35:35.115Z,28.50
2018-07-27T07:38:02.586Z,28.60
2018-07-27T07:40:30.036Z,28.60
2018-07-27T07:42:57.494Z,28.70
2018-07-27T07:45:25.016Z,28.70
2018-07-27T07:47:52.502Z,28.70
2018-07-27T07:50:19.997Z,28.70
2018-07-27T07:52:47.471Z,28.80
2018-07-27T07:55:14.928Z,28.90
2018-07-27T07:57:42.482Z,29.00
2018-07-27T08:00:09.943Z,29.20
2018-07-27T08:02:37.397Z,29.50
2018-07-27T08:05:04.870Z,29.90
2018-07-27T08:07:33.145Z,30.50
2018-07-27T08:10:00.615Z,30.40
2018-07-27T08:12:28.195Z,30.70
2018-07-27T08:14:55.740Z,30.90
2018-07-27T08:17:23.306Z,31.00
2018-07-27T08:19:50.751Z,31.20
2018-07-27T08:22:18.234Z,31.20
2018-07-27T08:24:45.692Z,31.40
2018-07-27T08:27:13.247Z,31.30
2018-07-27T08:29:40.698Z,31.30
2018-07-27T08:32:08.188Z,31.40
2018-07-27T08:34:35.649Z,31.40
2018-07-27T08:37:03.114Z,31.50
2018-07-27T08:39:30.585Z,31.70
2018-07-27T08:41:58.045Z,31.70
2018-07-27T08:44:25.494Z,31.80
2018-07-27T08:46:53.728Z,31.90
2018-07-27T08:49:21.175Z,31.90
2018-07-27T08:51:49.388Z,31.90
2018-07-27T08:54:16.852Z,31.90
2018-07-27T08:56:44.304Z,31.90
2018-07-27T08:59:11.763Z,31.90
2018-07-27T09:01:39.216Z,31.90
2018-07-27T09:04:06.995Z,32.00
2018-07-27T09:06:34.497Z,31.90
2018-07-27T09:09:02.057Z,32.00
2018-07-27T09:11:29.517Z,32.00
2018-07-27T09:13:57.093Z,31.90
2018-07-27T09:16:24.557Z,32.00
2018-07-27T09:18:52.028Z,32.10
2018-07-27T09:21:19.581Z,32.30
2018-07-27T09:23:47.039Z,32.30
2018-07-27T09:26:14.521Z,32.20
2018-07-27T09:28:41.967Z,32.20
2018-07-27T09:31:09.427Z,32.30
2018-07-27T09:33:36.888Z,32.30
2018-07-27T09:36:04.536Z,32.50
2018-07-27T09:38:32.132Z,32.50
2018-07-27T09:41:00.664Z,32.40
2018-07-27T09:43:28.149Z,32.50
2018-07-27T09:45:55.650Z,32.70
2018-07-27T09:48:23.201Z,32.80
2018-07-27T09:50:50.754Z,32.80
2018-07-27T09:53:18.788Z,32.80
2018-07-27T09:55:46.255Z,32.70
2018-07-27T09:58:14.648Z,32.80
2018-07-27T10:00:42.120Z,32.80
2018-07-27T10:03:09.592Z,32.80
2018-07-27T10:05:37.580Z,33.00
2018-07-27T10:08:05.316Z,33.00
2018-07-27T10:10:32.775Z,33.20
2018-07-27T10:13:00.288Z,33.30
2018-07-27T10:15:27.890Z,33.30
2018-07-27T10:17:56.077Z,33.40
2018-07-27T10:20:23.535Z,33.50
2018-07-27T10:22:51.007Z,33.60
2018-07-27T10:25:18.464Z,33.70
2018-07-27T10:27:45.922Z,33.80
2018-07-27T10:30:13.425Z,33.80
2018-07-27T10:32:40.909Z,33.80
2018-07-27T10:35:08.371Z,34.00
2018-07-27T10:37:36.605Z,34.20
2018-07-27T10:40:04.076Z,34.10
2018-07-27T10:42:31.651Z,34.10
2018-07-27T10:44:59.227Z,34.10
2018-07-27T10:47:26.679Z,34.00
2018-07-27T10:49:54.154Z,34.00
2018-07-27T10:52:21.665Z,34.20
2018-07-27T10:54:49.166Z,34.30
2018-07-27T10:57:16.615Z,34.20
2018-07-27T10:59:44.313Z,34.30
2018-07-27T11:02:13.272Z,34.30
2018-07-27T11:04:40.738Z,34.30
2018-07-27T11:07:08.215Z,34.40
2018-07-27T11:09:35.777Z,34.40
2018-07-27T11:12:03.241Z,34.40
2018-07-27T11:14:30.692Z,34.50
2018-07-27T11:16:59.405Z,34.50
2018-07-27T11:19:26.849Z,34.40
2018-07-27T11:21:54.314Z,34.60
2018-07-27T11:24:21.763Z,34.80
2018-07-27T11:26:49.242Z,34.80
2018-07-27T11:29:16.713Z,34.80
2018-07-27T11:31:44.171Z,34.90
2018-07-27T11:34:11.614Z,35.00
2018-07-27T11:36:40.117Z,35.00
2018-07-27T11:39:07.581Z,35.00
2018-07-27T11:41:35.142Z,35.10
2018-07-27T11:44:02.611Z,35.00
2018-07-27T11:46:30.063Z,35.20
2018-07-27T11:48:57.633Z,35.40
2018-07-27T11:51:25.187Z,35.20
2018-07-27T11:53:52.662Z,35.40
2018-07-27T11:56:20.105Z,35.30
2018-07-27T11:58:47.586Z,35.30
2018-07-27T12:01:15.185Z,35.30
2018-07-27T12:03:42.618Z,35.30
2018-07-27T12:06:10.172Z,35.30
2018-07-27T12:08:37.631Z,35.50
2018-07-27T12:11:05.091Z,35.50
2018-07-27T12:13:32.541Z,35.50
2018-07-27T12:16:00.022Z,35.50
2018-07-27T12:18:27.547Z,35.60
2018-07-27T12:20:55.297Z,35.60
2018-07-27T12:23:22.611Z,35.60
2018-07-27T12:25:50.094Z,35.70
2018-07-27T12:28:18.370Z,35.70
2018-07-27T12:30:46.136Z,35.70
2018-07-27T12:33:13.594Z,35.70
2018-07-27T12:35:41.047Z,35.80
2018-07-27T12:38:08.511Z,35.80
2018-07-27T12:40:35.967Z,35.80
2018-07-27T12:43:03.535Z,35.80
2018-07-27T12:45:31.108Z,35.90
2018-07-27T12:47:58.566Z,35.90
2018-07-27T12:50:26.019Z,36.10
2018-07-27T12:52:53.479Z,36.00
2018-07-27T12:55:22.450Z,36.00
2018-07-27T12:57:49.900Z,36.00
2018-07-27T13:00:17.411Z,36.10
2018-07-27T13:02:44.987Z,36.00
2018-07-27T13:05:12.479Z,35.80
2018-07-27T13:07:40.704Z,36.00
2018-07-27T13:10:08.164Z,36.00
2018-07-27T13:12:35.627Z,36.00
2018-07-27T13:15:03.126Z,36.10
2018-07-27T13:17:30.585Z,36.10
2018-07-27T13:19:58.836Z,36.10
2018-07-27T13:22:26.319Z,36.10
2018-07-27T13:27:21.219Z,36.30
2018-07-27T13:29:48.701Z,36.30
2018-07-27T13:32:16.568Z,36.20
2018-07-27T13:34:44.036Z,36.20
2018-07-27T13:37:11.867Z,36.30
2018-07-27T13:39:39.352Z,36.40
2018-07-27T13:42:07.551Z,36.40
2018-07-27T13:44:36.553Z,36.40
2018-07-27T13:47:04.121Z,36.40
2018-07-27T13:49:31.562Z,36.40
2018-07-27T13:51:59.030Z,36.30
2018-07-27T13:54:26.627Z,36.20
2018-07-27T13:56:54.072Z,36.20
2018-07-27T13:59:21.626Z,36.30
2018-07-27T14:01:49.186Z,36.40
2018-07-27T14:04:16.636Z,36.40
2018-07-27T14:06:44.095Z,36.30
2018-07-27T14:09:11.572Z,36.20
2018-07-27T14:11:39.094Z,36.00
2018-07-27T14:14:06.534Z,36.20
2018-07-27T14:16:34.762Z,36.40
2018-07-27T14:19:03.061Z,36.50
2018-07-27T14:21:30.650Z,36.50
2018-07-27T14:23:58.079Z,36.40
2018-07-27T14:26:25.534Z,36.50
2018-07-27T14:28:52.992Z,36.60
2018-07-27T14:31:20.451Z,36.50
2018-07-27T14:33:47.944Z,36.60
2018-07-27T14:36:15.500Z,36.50
2018-07-27T14:38:42.951Z,36.60
2018-07-27T14:41:10.429Z,36.70
2018-07-27T14:43:39.423Z,36.60
2018-07-27T14:46:06.994Z,36.60
2018-07-27T14:48:35.963Z,36.70
2018-07-27T14:51:04.162Z,36.70
2018-07-27T14:53:31.617Z,36.70
2018-07-27T14:55:59.079Z,36.70
2018-07-27T14:58:26.536Z,36.80
2018-07-27T15:00:54.008Z,36.80
2018-07-27T15:03:21.567Z,36.80
2018-07-27T15:05:49.017Z,36.80
2018-07-27T15:08:16.495Z,36.70
2018-07-27T15:10:44.063Z,36.80
2018-07-27T15:13:11.520Z,37.00
2018-07-27T15:15:38.992Z,36.90
2018-07-27T15:18:06.467Z,36.90
2018-07-27T15:20:33.933Z,36.90
2018-07-27T15:23:01.379Z,37.00
2018-07-27T15:25:28.949Z,37.00
2018-07-27T15:27:56.442Z,37.00
2018-07-27T15:30:23.961Z,37.00
2018-07-27T15:32:51.419Z,37.00
2018-07-27T15:35:18.982Z,36.80
2018-07-27T15:37:46.507Z,36.80
2018-07-27T15:40:14.015Z,36.80
2018-07-27T15:42:41.479Z,37.00
2018-07-27T15:45:08.936Z,36.80
2018-07-27T15:47:36.412Z,36.80
2018-07-27T15:50:04.635Z,36.90
2018-07-27T15:52:32.148Z,36.90
2018-07-27T15:54:59.603Z,37.00
2018-07-27T15:57:27.170Z,36.80
2018-07-27T15:59:54.644Z,36.80
2018-07-27T16:02:22.867Z,36.80
2018-07-27T16:04:50.383Z,36.90
2018-07-27T16:07:17.855Z,36.70
2018-07-27T16:09:45.414Z,36.80
2018-07-27T16:12:12.881Z,36.70
2018-07-27T16:14:40.328Z,36.70
2018-07-27T16:17:07.792Z,36.90
2018-07-27T16:19:35.352Z,36.80
2018-07-27T16:22:02.799Z,36.70
2018-07-27T16:24:30.279Z,36.60
2018-07-27T16:26:57.748Z,36.60
2018-07-27T16:29:25.194Z,36.60
2018-07-27T16:31:52.659Z,36.40
2018-07-27T16:34:20.151Z,36.50
2018-07-27T16:36:47.680Z,36.20
2018-07-27T16:39:15.149Z,36.10
2018-07-27T16:41:42.701Z,36.20
2018-07-27T16:44:10.185Z,36.30
2018-07-27T16:46:38.219Z,36.00
2018-07-27T16:49:05.662Z,36.10
2018-07-27T16:51:33.123Z,36.20
2018-07-27T16:54:01.353Z,36.40
2018-07-27T16:56:28.830Z,36.40
2018-07-27T16:58:56.393Z,36.40
2018-07-27T17:01:23.947Z,36.10
2018-07-27T17:03:51.511Z,36.10
2018-07-27T17:06:19.761Z,36.30
2018-07-27T17:08:47.974Z,36.30
2018-07-27T17:11:15.431Z,36.30
2018-07-27T17:13:42.901Z,36.20
2018-07-27T17:16:10.357Z,36.30
2018-07-27T17:18:37.820Z,36.20
2018-07-27T17:21:05.386Z,36.00
2018-07-27T17:23:32.948Z,36.00
2018-07-27T17:26:00.415Z,35.90
2018-07-27T17:28:27.881Z,36.10
2018-07-27T17:30:55.332Z,36.20
2018-07-27T17:33:22.779Z,36.20
2018-07-27T17:35:50.240Z,36.20
2018-07-27T17:38:17.692Z,36.10
2018-07-27T17:40:45.151Z,36.10
2018-07-27T17:43:12.602Z,36.10
2018-07-27T17:45:40.071Z,36.20
2018-07-27T17:48:07.537Z,36.20
2018-07-27T17:50:35.043Z,36.10
2018-07-27T17:53:02.511Z,36.10
2018-07-27T17:55:29.960Z,36.00
2018-07-27T17:57:57.416Z,35.90
2018-07-27T18:00:24.863Z,35.90
2018-07-27T18:02:52.329Z,35.80
2018-07-27T18:05:19.774Z,35.80
2018-07-27T18:07:47.279Z,35.80
2018-07-27T18:10:14.691Z,35.80
2018-07-27T18:12:42.160Z,35.90
2018-07-27T18:15:09.653Z,36.00
2018-07-27T18:17:37.117Z,35.90
2018-07-27T18:20:04.689Z,35.90
2018-07-27T18:22:32.248Z,35.90
2018-07-27T18:24:59.708Z,35.80
2018-07-27T18:27:27.162Z,35.70
2018-07-27T18:29:54.626Z,35.70
2018-07-27T18:32:22.165Z,36.00
2018-07-27T18:34:49.673Z,36.00
2018-07-27T18:37:17.123Z,36.00
2018-07-27T18:39:44.628Z,35.90
2018-07-27T18:42:13.892Z,35.90
2018-07-27T18:44:41.415Z,35.80
2018-07-27T18:47:08.851Z,35.80
2018-07-27T18:49:37.086Z,35.80
2018-07-27T18:52:04.520Z,35.80
2018-07-27T18:54:32.024Z,35.80
2018-07-27T18:56:59.498Z,35.80
2018-07-27T18:59:26.957Z,35.90
2018-07-27T19:01:55.187Z,35.80
2018-07-27T19:04:22.688Z,35.80
2018-07-27T19:06:50.260Z,35.70
2018-07-27T19:09:17.820Z,35.70
2018-07-27T19:11:45.282Z,35.70
2018-07-27T19:14:12.753Z,35.70
2018-07-27T19:16:40.230Z,35.70
2018-07-27T19:19:09.164Z,35.60
2018-07-27T19:21:36.619Z,35.60
2018-07-27T19:24:04.085Z,35.60
2018-07-27T19:26:31.541Z,35.50
2018-07-27T19:28:59.046Z,35.30
2018-07-27T19:31:26.624Z,35.20
2018-07-27T19:33:54.172Z,35.30
2018-07-27T19:36:21.625Z,35.10
2018-07-27T19:38:49.089Z,35.10
2018-07-27T19:41:16.545Z,35.20
2018-07-27T19:43:44.010Z,35.00
2018-07-27T19:46:11.483Z,35.10
2018-07-27T19:48:39.060Z,35.20
2018-07-27T19:51:06.517Z,35.00
2018-07-27T19:53:34.087Z,35.00
2018-07-27T19:56:01.558Z,34.90
2018-07-27T19:58:29.015Z,34.80
2018-07-27T20:00:56.577Z,34.80
2018-07-27T20:03:24.056Z,34.70
2018-07-27T20:05:52.313Z,34.70
2018-07-27T20:08:19.766Z,34.60
2018-07-27T20:10:47.399Z,34.70
2018-07-27T20:13:14.802Z,34.70
2018-07-27T20:15:42.259Z,34.70
2018-07-27T20:18:09.823Z,34.70
2018-07-27T20:20:37.291Z,34.70
2018-07-27T20:23:04.855Z,34.60
2018-07-27T20:25:33.078Z,34.50
2018-07-27T20:28:00.612Z,34.50
2018-07-27T20:30:28.124Z,34.50
2018-07-27T20:32:55.631Z,34.40
2018-07-27T20:35:23.189Z,34.40
2018-07-27T20:37:51.580Z,34.30
2018-07-27T20:40:19.038Z,34.30
2018-07-27T20:42:46.507Z,34.20
2018-07-27T20:45:13.966Z,34.20
2018-07-27T20:47:41.520Z,34.20
2018-07-27T20:50:09.085Z,34.00
2018-07-27T20:52:36.561Z,34.00
2018-07-27T20:55:04.012Z,34.00
2018-07-27T20:57:31.466Z,33.90
2018-07-27T20:59:59.704Z,33.60
2018-07-27T21:02:27.216Z,33.60
2018-07-27T21:04:54.785Z,33.60
2018-07-27T21:07:22.251Z,33.50
2018-07-27T21:09:50.554Z,33.50
2018-07-27T21:12:18.007Z,33.50
2018-07-27T21:14:45.458Z,33.40
2018-07-27T21:17:12.930Z,33.40
2018-07-27T21:19:40.412Z,33.20
2018-07-27T21:22:08.636Z,33.20
2018-07-27T21:24:36.117Z,33.20
2018-07-27T21:27:03.671Z,33.20
2018-07-27T21:29:31.158Z,33.10
2018-07-27T21:31:58.627Z,31.90
2018-07-27T21:34:26.179Z,31.00
2018-07-27T21:36:53.655Z,30.80
2018-07-27T21:39:21.124Z,30.40
2018-07-27T21:41:48.656Z,30.40
2018-07-27T21:44:16.227Z,30.20
2018-07-27T21:46:43.781Z,30.20
2018-07-27T21:49:11.259Z,30.30
2018-07-27T21:51:38.867Z,30.20
2018-07-27T21:54:06.294Z,30.20
2018-07-27T21:56:34.576Z,30.20
2018-07-27T21:59:02.136Z,30.20
2018-07-27T22:01:29.601Z,30.20
2018-07-27T22:03:57.055Z,30.00
2018-07-27T22:06:24.617Z,30.20
2018-07-27T22:08:52.177Z,30.50
2018-07-27T22:11:19.655Z,30.20
2018-07-27T22:13:47.863Z,29.20
2018-07-27T22:16:15.387Z,29.20
2018-07-27T22:18:42.842Z,29.40
2018-07-27T22:21:10.315Z,29.70
2018-07-27T22:23:37.774Z,30.10
2018-07-27T22:26:05.264Z,29.80
2018-07-27T22:28:33.505Z,28.60
2018-07-27T22:31:00.959Z,28.60
2018-07-27T22:33:29.106Z,28.10
2018-07-27T22:35:56.611Z,27.80
2018-07-27T22:38:24.172Z,27.50
2018-07-27T22:40:51.648Z,27.40
2018-07-27T22:43:19.114Z,27.30
2018-07-27T22:45:47.341Z,27.10
2018-07-27T22:48:14.810Z,27.10
2018-07-27T22:50:42.321Z,27.00
2018-07-27T22:53:09.782Z,26.90
2018-07-27T22:55:37.260Z,27.00
2018-07-27T22:58:05.504Z,27.10
2018-07-27T23:00:32.986Z,27.10
2018-07-27T23:03:00.468Z,26.80
2018-07-27T23:05:28.702Z,26.90
2018-07-27T23:07:56.211Z,26.80
2018-07-27T23:10:23.665Z,26.70
2018-07-27T23:12:51.137Z,26.70
2018-07-27T23:15:19.324Z,26.80
2018-07-27T23:17:46.854Z,26.80
2018-07-27T23:20:14.304Z,26.40
2018-07-27T23:22:41.766Z,26.50
2018-07-27T23:25:09.246Z,26.60
2018-07-27T23:27:37.473Z,26.00
2018-07-27T23:30:04.920Z,26.00
2018-07-27T23:32:32.390Z,26.10
2018-07-27T23:34:59.845Z,25.90
2018-07-27T23:37:27.302Z,25.70
2018-07-27T23:39:54.770Z,25.50
2018-07-27T23:42:23.397Z,25.20
2018-07-27T23:44:50.857Z,25.20
2018-07-27T23:47:18.296Z,25.30
2018-07-27T23:49:45.760Z,25.10
2018-07-27T23:52:13.230Z,25.10
2018-07-27T23:54:40.679Z,24.90
2018-07-27T23:57:08.137Z,25.10
2018-07-27T23:59:35.585Z,25.20
